Aeropuerto de Asturias

latitud = 43° 34' 01''N | longitud = 006° 02' 39''W
127 metros sobre el nivel del mar | datos mensuales

Fecha, hora, temperatura, viento dirección y velocidad, humedad y presión.

  • 30-10-2018 04:00:00 | 6.30°C | Sur |14.00 km/h | 94.00% | 980.80 hPa
  • 30-10-2018 03:00:00 | 6.70°C | Sudeste |9.00 km/h | 94.00% | 981.40 hPa
  • 30-10-2018 02:00:00 | 7.30°C | Sudeste |10.00 km/h | 88.00% | 982.10 hPa
  • 30-10-2018 01:00:00 | 7.20°C | Sur |5.00 km/h | 89.00% | 982.80 hPa
  • 30-10-2018 00:00:00 | 8.20°C | Sur |10.00 km/h | 78.00% | 983.50 hPa
  • 29-10-2018 23:00:00 | 8.10°C | Sudoeste |13.00 km/h | 78.00% | 984.50 hPa
  • 29-10-2018 22:00:00 | 7.40°C | Sudoeste |12.00 km/h | 83.00% | 985.60 hPa
  • 29-10-2018 21:00:00 | 7.50°C | Sudoeste |16.00 km/h | 81.00% | 986.10 hPa
  • 29-10-2018 20:00:00 | 7.80°C | Sudoeste |14.00 km/h | 82.00% | 987.20 hPa
  • 29-10-2018 19:00:00 | 7.30°C | Sur |9.00 km/h | 91.00% | 988.20 hPa
  • 29-10-2018 18:00:00 | 7.70°C | Sudeste |9.00 km/h | 90.00% | 989.00 hPa
  • 29-10-2018 17:00:00 | 8.50°C | Sudoeste |9.00 km/h | 89.00% | 989.30 hPa
  • 29-10-2018 16:00:00 | 7.70°C | Sudoeste |11.00 km/h | 91.00% | 990.30 hPa
  • 29-10-2018 15:00:00 | 8.40°C | Oeste |23.00 km/h | 87.00% | 990.80 hPa
  • 29-10-2018 14:00:00 | 9.70°C | Oeste |17.00 km/h | 81.00% | 991.40 hPa
  • 29-10-2018 13:00:00 | 10.50°C | Oeste |16.00 km/h | 78.00% | 992.30 hPa
  • 29-10-2018 12:00:00 | 9.00°C | Oeste |15.00 km/h | 78.00% | 992.60 hPa
  • 29-10-2018 11:00:00 | 6.90°C | Sudoeste |16.00 km/h | 83.00% | 993.60 hPa
  • 29-10-2018 10:00:00 | 6.40°C | Sur |13.00 km/h | 82.00% | 994.00 hPa
  • 29-10-2018 09:00:00 | 5.60°C | Oeste |14.00 km/h | 84.00% | 994.30 hPa
  • 29-10-2018 08:00:00 | 5.30°C | Sudoeste |10.00 km/h | 83.00% | 993.50 hPa
  • 29-10-2018 07:00:00 | 6.00°C | Sudoeste |13.00 km/h | 82.00% | 993.90 hPa
  • 29-10-2018 06:00:00 | 5.20°C | Sudoeste |11.00 km/h | 81.00% | 994.30 hPa
  • 29-10-2018 05:00:00 | 4.90°C | Sudoeste |3.00 km/h | 81.00% | 994.30 hPa